createdAt,value
2022-11-20T00:00:40.574Z,1.00
2022-11-20T00:03:07.115Z,1.01
2022-11-20T00:05:33.924Z,1.00
2022-11-20T00:08:00.539Z,0.98
2022-11-20T00:10:27.146Z,0.99
2022-11-20T00:12:53.822Z,1.01
2022-11-20T00:15:20.366Z,1.02
2022-11-20T00:17:48.269Z,1.02
2022-11-20T00:20:15.673Z,1.02
2022-11-20T00:22:42.238Z,1.00
2022-11-20T00:25:09.170Z,1.01
2022-11-20T00:27:35.747Z,1.00
2022-11-20T00:30:02.374Z,1.01
2022-11-20T00:32:28.950Z,1.00
2022-11-20T00:34:56.967Z,0.98
2022-11-20T00:37:23.616Z,0.99
2022-11-20T00:39:50.217Z,1.01
2022-11-20T00:42:16.861Z,0.99
2022-11-20T00:44:43.551Z,0.99
2022-11-20T00:47:10.128Z,0.99
2022-11-20T00:49:36.720Z,0.98
2022-11-20T00:52:04.979Z,0.97
2022-11-20T00:54:31.885Z,0.98
2022-11-20T00:56:58.497Z,0.97
2022-11-20T00:59:25.067Z,0.98
2022-11-20T01:01:51.640Z,0.96
2022-11-20T01:04:18.244Z,0.97
2022-11-20T01:06:44.848Z,1.01
2022-11-20T01:09:14.583Z,1.02
2022-11-20T01:11:43.500Z,1.03
2022-11-20T01:14:12.969Z,1.03
2022-11-20T01:16:41.605Z,1.02
2022-11-20T01:19:17.372Z,1.02
2022-11-20T01:21:46.466Z,1.02
2022-11-20T01:24:15.913Z,1.03
2022-11-20T01:26:43.892Z,1.04
2022-11-20T01:29:14.766Z,1.03
2022-11-20T01:31:41.413Z,1.01
2022-11-20T01:34:11.298Z,1.02
2022-11-20T01:36:39.248Z,1.01
2022-11-20T01:39:08.476Z,1.01
2022-11-20T01:41:36.502Z,1.02
2022-11-20T01:44:04.901Z,1.02
2022-11-20T01:46:32.939Z,1.02
2022-11-20T01:49:03.315Z,1.01
2022-11-20T01:51:34.271Z,1.01
2022-11-20T01:54:06.191Z,1.00
2022-11-20T01:56:39.898Z,1.00
2022-11-20T01:59:09.449Z,0.98
2022-11-20T02:01:36.059Z,0.99
2022-11-20T02:04:03.440Z,0.99
2022-11-20T02:06:35.182Z,0.95
2022-11-20T02:09:01.841Z,0.93
2022-11-20T02:11:31.227Z,0.90
2022-11-20T02:14:00.385Z,0.88
2022-11-20T02:16:30.108Z,0.87
2022-11-20T02:19:00.549Z,0.84
2022-11-20T02:21:37.341Z,0.82
2022-11-20T02:24:16.053Z,0.81
2022-11-20T02:26:49.078Z,0.76
2022-11-20T02:29:19.814Z,0.73
2022-11-20T02:31:47.039Z,0.71
2022-11-20T02:34:13.622Z,0.69
2022-11-20T02:36:43.320Z,0.67
2022-11-20T02:39:12.231Z,0.66
2022-11-20T02:41:40.267Z,0.65
2022-11-20T02:44:06.877Z,0.65
2022-11-20T02:46:33.548Z,0.65
2022-11-20T02:49:01.092Z,0.65
2022-11-20T02:51:27.738Z,0.64
2022-11-20T02:53:54.353Z,0.66
2022-11-20T02:56:21.066Z,0.67
2022-11-20T02:58:49.078Z,0.70
2022-11-20T03:01:15.891Z,0.71
2022-11-20T03:03:42.549Z,0.72
2022-11-20T03:06:09.288Z,0.72
2022-11-20T03:08:35.874Z,0.71
2022-11-20T03:11:06.889Z,0.69
2022-11-20T03:13:33.967Z,0.68
2022-11-20T03:16:08.033Z,0.67
2022-11-20T03:18:34.618Z,0.67
2022-11-20T03:21:01.361Z,0.67
2022-11-20T03:23:30.812Z,0.68
2022-11-20T03:25:57.500Z,0.68
2022-11-20T03:28:24.106Z,0.67
2022-11-20T03:30:50.664Z,0.67
2022-11-20T03:33:18.612Z,0.63
2022-11-20T03:35:45.144Z,0.61
2022-11-20T03:38:11.739Z,0.59
2022-11-20T03:40:38.404Z,0.58
2022-11-20T03:43:04.989Z,0.58
2022-11-20T03:45:31.525Z,0.57
2022-11-20T03:47:58.076Z,0.55
2022-11-20T03:50:26.012Z,0.54
2022-11-20T03:52:52.746Z,0.54
2022-11-20T03:55:19.320Z,0.54
2022-11-20T03:57:45.887Z,0.55
2022-11-20T04:00:13.991Z,0.53
2022-11-20T04:02:40.771Z,0.53
2022-11-20T04:05:07.791Z,0.51
2022-11-20T04:07:36.368Z,0.47
2022-11-20T04:10:03.762Z,0.46
2022-11-20T04:12:33.147Z,0.45
2022-11-20T04:14:59.689Z,0.47
2022-11-20T04:17:26.216Z,0.47
2022-11-20T04:19:52.816Z,0.48
2022-11-20T04:22:19.457Z,0.49
2022-11-20T04:24:47.363Z,0.48
2022-11-20T04:27:13.934Z,0.47
2022-11-20T04:29:40.492Z,0.47
2022-11-20T04:32:07.171Z,0.49
2022-11-20T04:34:33.885Z,0.49
2022-11-20T04:37:00.447Z,0.52
2022-11-20T04:39:27.085Z,0.54
2022-11-20T04:41:55.145Z,0.56
2022-11-20T04:44:21.728Z,0.57
2022-11-20T04:46:48.276Z,0.58
2022-11-20T04:49:15.381Z,0.58
2022-11-20T04:51:42.103Z,0.59
2022-11-20T04:54:09.458Z,0.60
2022-11-20T04:56:35.996Z,0.62
2022-11-20T04:59:04.001Z,0.63
2022-11-20T05:01:31.364Z,0.63
2022-11-20T05:03:58.016Z,0.63
2022-11-20T05:06:24.603Z,0.63
2022-11-20T05:08:51.366Z,0.62
2022-11-20T05:11:19.914Z,0.63
2022-11-20T05:13:46.571Z,0.63
2022-11-20T05:16:16.553Z,0.63
2022-11-20T05:18:43.730Z,0.63
2022-11-20T05:21:11.663Z,0.65
2022-11-20T05:23:38.420Z,0.65
2022-11-20T05:26:06.089Z,0.65
2022-11-20T05:28:34.756Z,0.63
2022-11-20T05:31:06.243Z,0.65
2022-11-20T05:33:35.406Z,0.65
2022-11-20T05:36:02.236Z,0.64
2022-11-20T05:38:28.805Z,0.66
2022-11-20T05:40:55.438Z,0.65
2022-11-20T05:43:22.001Z,0.66
2022-11-20T05:45:53.569Z,0.67
2022-11-20T05:48:20.096Z,0.67
2022-11-20T05:50:48.139Z,0.68
2022-11-20T05:53:14.707Z,0.67
2022-11-20T05:55:41.523Z,0.66
2022-11-20T05:58:08.199Z,0.66
2022-11-20T06:00:34.900Z,0.66
2022-11-20T06:03:01.506Z,0.67
2022-11-20T06:05:28.194Z,0.70
2022-11-20T06:07:56.132Z,0.70
2022-11-20T06:10:22.718Z,0.72
2022-11-20T06:12:49.271Z,0.72
2022-11-20T06:15:16.222Z,0.73
2022-11-20T06:17:42.767Z,0.72
2022-11-20T06:20:10.826Z,0.73
2022-11-20T06:22:37.399Z,0.72
2022-11-20T06:25:05.718Z,0.72
2022-11-20T06:27:32.269Z,0.72
2022-11-20T06:29:58.884Z,0.71
2022-11-20T06:32:25.557Z,0.71
2022-11-20T06:34:52.114Z,0.71
2022-11-20T06:37:18.690Z,0.71
2022-11-20T06:39:45.232Z,0.70
2022-11-20T06:42:13.274Z,0.71
2022-11-20T06:44:39.818Z,0.72
2022-11-20T06:47:06.416Z,0.73
2022-11-20T06:49:33.002Z,0.73
2022-11-20T06:51:59.595Z,0.74
2022-11-20T06:54:26.263Z,0.71
2022-11-20T06:56:52.816Z,0.70
2022-11-20T06:59:21.172Z,0.72
2022-11-20T07:01:47.885Z,0.72
2022-11-20T07:04:14.487Z,0.73
2022-11-20T07:06:41.111Z,0.74
2022-11-20T07:09:12.544Z,0.73
2022-11-20T07:11:39.496Z,0.76
2022-11-20T07:14:06.054Z,0.79
2022-11-20T07:16:34.391Z,0.82
2022-11-20T07:19:01.002Z,0.84
2022-11-20T07:21:27.612Z,0.87
2022-11-20T07:23:54.236Z,0.89
2022-11-20T07:26:20.806Z,0.91
2022-11-20T07:28:47.356Z,0.93
2022-11-20T07:31:18.785Z,0.93
2022-11-20T07:33:47.524Z,0.95
2022-11-20T07:36:14.109Z,0.98
2022-11-20T07:38:40.728Z,1.02
2022-11-20T07:41:07.293Z,1.04
2022-11-20T07:43:37.172Z,1.08
2022-11-20T07:46:06.394Z,1.13
2022-11-20T07:48:33.024Z,1.16
2022-11-20T07:51:01.049Z,1.18
2022-11-20T07:53:27.606Z,1.21
2022-11-20T07:55:54.253Z,1.27
2022-11-20T07:58:21.696Z,1.30
2022-11-20T08:00:48.286Z,1.34
2022-11-20T08:03:15.334Z,1.36
2022-11-20T08:05:43.673Z,1.41
2022-11-20T08:08:11.671Z,1.44
2022-11-20T08:10:38.312Z,1.48
2022-11-20T08:13:04.897Z,1.50
2022-11-20T08:15:31.907Z,1.53
2022-11-20T08:18:29.526Z,1.55
2022-11-20T08:20:49.330Z,1.57
2022-11-20T08:23:17.278Z,1.58
2022-11-20T08:25:43.829Z,1.59
2022-11-20T08:28:20.127Z,1.59
2022-11-20T08:30:47.236Z,1.65
2022-11-20T08:33:13.800Z,1.70
2022-11-20T08:35:40.422Z,1.76
2022-11-20T08:38:07.581Z,1.80
2022-11-20T08:40:35.545Z,1.85
2022-11-20T08:43:02.102Z,1.93
2022-11-20T08:45:33.780Z,2.02
2022-11-20T08:48:01.919Z,2.10
2022-11-20T08:50:28.640Z,2.18
2022-11-20T08:52:55.230Z,2.23
2022-11-20T08:55:21.937Z,2.28
2022-11-20T08:57:51.244Z,2.33
2022-11-20T09:00:18.285Z,2.36
2022-11-20T09:02:44.842Z,2.39
2022-11-20T09:05:12.191Z,2.41
2022-11-20T09:07:38.780Z,2.44
2022-11-20T09:12:54.871Z,2.54
2022-11-20T09:15:22.446Z,2.57
2022-11-20T09:17:52.563Z,2.61
2022-11-20T09:20:19.208Z,2.66
2022-11-20T09:22:45.850Z,2.69
2022-11-20T09:25:12.509Z,2.71
2022-11-20T09:27:39.129Z,2.74
2022-11-20T09:30:08.616Z,2.78
2022-11-20T09:32:35.252Z,2.82
2022-11-20T09:37:33.462Z,2.91
2022-11-20T09:40:00.119Z,2.97
2022-11-20T09:42:41.645Z,3.01
2022-11-20T09:45:19.679Z,3.04
2022-11-20T09:48:00.748Z,3.10
2022-11-20T09:50:32.462Z,3.14
2022-11-20T09:53:12.014Z,3.22
2022-11-20T09:55:39.564Z,3.25
2022-11-20T09:58:08.652Z,3.25
2022-11-20T10:00:38.351Z,3.26
2022-11-20T10:03:14.515Z,3.29
2022-11-20T10:05:45.908Z,3.31
2022-11-20T10:08:18.628Z,3.35
2022-11-20T10:10:52.432Z,3.35
2022-11-20T10:13:32.862Z,3.34
2022-11-20T10:16:17.981Z,3.34
2022-11-20T10:18:59.149Z,3.40
2022-11-20T10:21:37.711Z,3.41
2022-11-20T10:24:23.657Z,3.40
2022-11-20T10:27:00.135Z,3.39
2022-11-20T10:29:33.383Z,3.39
2022-11-20T10:32:05.138Z,3.44
2022-11-20T10:34:39.632Z,3.44
2022-11-20T10:37:12.875Z,3.47
2022-11-20T10:39:48.292Z,3.52
2022-11-20T10:42:23.445Z,3.58
2022-11-20T10:44:56.640Z,3.64
2022-11-20T10:47:27.312Z,3.72
2022-11-20T10:49:56.682Z,3.78
2022-11-20T10:52:33.891Z,3.82
2022-11-20T10:55:12.578Z,3.88
2022-11-20T10:57:53.100Z,3.96
2022-11-20T11:00:19.682Z,4.03
2022-11-20T11:02:49.338Z,4.07
2022-11-20T11:05:28.723Z,4.10
2022-11-20T11:07:56.730Z,4.02
2022-11-20T11:10:29.548Z,3.93
2022-11-20T11:12:56.206Z,3.79
2022-11-20T11:15:28.722Z,3.72
2022-11-20T11:17:57.024Z,3.63
2022-11-20T11:20:24.933Z,3.55
2022-11-20T11:22:53.495Z,3.50
2022-11-20T11:25:25.148Z,3.42
2022-11-20T11:27:53.756Z,3.36
2022-11-20T11:30:21.204Z,3.29
2022-11-20T11:32:48.260Z,3.25
2022-11-20T11:35:25.768Z,3.25
2022-11-20T11:37:54.779Z,3.27
2022-11-20T11:40:24.675Z,3.29
2022-11-20T11:42:55.793Z,3.31
2022-11-20T11:45:22.558Z,3.34
2022-11-20T11:47:51.258Z,3.37
2022-11-20T11:50:21.461Z,3.38
2022-11-20T11:53:09.526Z,3.42
2022-11-20T11:55:41.323Z,3.46
2022-11-20T11:58:18.027Z,3.45
2022-11-20T12:00:52.438Z,3.35
2022-11-20T12:03:22.670Z,3.33
2022-11-20T12:05:56.397Z,3.35
2022-11-20T12:08:30.963Z,3.35
2022-11-20T12:11:04.307Z,3.36
2022-11-20T12:13:38.511Z,3.40
2022-11-20T12:16:05.701Z,3.45
2022-11-20T12:18:32.571Z,3.47
2022-11-20T12:21:12.972Z,3.50
2022-11-20T12:23:52.464Z,3.55
2022-11-20T12:26:31.021Z,3.60
2022-11-20T12:29:08.005Z,3.64
2022-11-20T12:31:53.854Z,3.65
2022-11-20T12:34:37.805Z,3.62
2022-11-20T12:37:13.803Z,3.58
2022-11-20T12:39:49.590Z,3.56
2022-11-20T12:42:31.957Z,3.57
2022-11-20T12:45:11.365Z,3.57
2022-11-20T12:48:00.456Z,3.58
2022-11-20T12:51:00.361Z,3.59
2022-11-20T12:53:34.324Z,3.58
2022-11-20T12:56:18.412Z,3.56
2022-11-20T12:58:55.629Z,3.58
2022-11-20T13:01:28.724Z,3.58
2022-11-20T13:03:59.764Z,3.60
2022-11-20T13:06:27.147Z,3.54
2022-11-20T13:08:55.426Z,3.49
2022-11-20T13:11:32.342Z,3.39
2022-11-20T13:14:13.825Z,3.32
2022-11-20T13:16:47.660Z,3.25
2022-11-20T13:19:16.709Z,3.19
2022-11-20T13:21:45.735Z,3.14
2022-11-20T13:24:23.875Z,3.10
2022-11-20T13:27:06.394Z,3.03
2022-11-20T13:29:34.357Z,2.97
2022-11-20T13:32:08.106Z,2.91
2022-11-20T13:34:36.202Z,2.86
2022-11-20T13:37:03.048Z,2.83
2022-11-20T13:39:32.226Z,2.81
2022-11-20T13:42:01.097Z,2.78
2022-11-20T13:44:35.587Z,2.73
2022-11-20T13:47:02.396Z,2.70
2022-11-20T13:49:33.496Z,2.67
2022-11-20T13:52:21.648Z,2.67
2022-11-20T13:55:07.909Z,2.66
2022-11-20T13:57:51.988Z,2.66
2022-11-20T14:00:21.527Z,2.65
2022-11-20T14:03:00.954Z,2.63
2022-11-20T14:05:27.896Z,2.58
2022-11-20T14:07:55.572Z,2.57
2022-11-20T14:10:31.099Z,2.56
2022-11-20T14:12:58.895Z,2.54
2022-11-20T14:15:29.824Z,2.55
2022-11-20T14:17:57.006Z,2.55
2022-11-20T14:20:26.896Z,2.53
2022-11-20T14:22:55.268Z,2.51
2022-11-20T14:25:23.253Z,2.48
2022-11-20T14:27:53.842Z,2.46
2022-11-20T14:30:23.255Z,2.45
2022-11-20T14:32:54.136Z,2.45
2022-11-20T14:35:24.887Z,2.43
2022-11-20T14:37:52.459Z,2.43
2022-11-20T14:40:28.833Z,2.41
2022-11-20T14:42:56.020Z,2.39
2022-11-20T14:45:23.667Z,2.38
2022-11-20T14:47:52.949Z,2.35
2022-11-20T14:50:22.957Z,2.34
2022-11-20T14:52:55.139Z,2.32
2022-11-20T14:55:32.379Z,2.31
2022-11-20T14:58:01.143Z,2.27
2022-11-20T15:00:28.780Z,2.27
2022-11-20T15:02:57.180Z,2.24
2022-11-20T15:05:26.408Z,2.21
2022-11-20T15:08:06.962Z,2.20
2022-11-20T15:10:33.977Z,2.19
2022-11-20T15:13:08.348Z,2.18
2022-11-20T15:15:47.924Z,2.14
2022-11-20T15:18:18.757Z,2.12
2022-11-20T15:20:45.802Z,2.09
2022-11-20T15:23:14.267Z,2.09
2022-11-20T15:25:42.435Z,2.09
2022-11-20T15:28:16.887Z,2.07
2022-11-20T15:30:43.644Z,2.06
2022-11-20T15:33:11.051Z,2.05
2022-11-20T15:35:39.549Z,1.99
2022-11-20T15:38:06.231Z,1.94
2022-11-20T15:40:33.256Z,1.90
2022-11-20T15:43:00.037Z,1.84
2022-11-20T15:45:29.346Z,1.79
2022-11-20T15:47:56.231Z,1.73
2022-11-20T15:50:26.516Z,1.67
2022-11-20T15:52:54.623Z,1.62
2022-11-20T15:55:21.342Z,1.58
2022-11-20T15:57:48.000Z,1.54
2022-11-20T16:00:19.279Z,1.50
2022-11-20T16:02:50.032Z,1.44
2022-11-20T16:05:16.864Z,1.38
2022-11-20T16:07:43.609Z,1.34
2022-11-20T16:10:11.809Z,1.29
2022-11-20T16:12:38.452Z,1.23
2022-11-20T16:15:10.796Z,1.20
2022-11-20T16:17:40.076Z,1.16
2022-11-20T16:20:11.403Z,1.11
2022-11-20T16:22:38.131Z,1.06
2022-11-20T16:25:05.570Z,1.03
2022-11-20T16:27:33.689Z,0.99
2022-11-20T16:30:00.276Z,0.97
2022-11-20T16:32:27.003Z,0.91
2022-11-20T16:34:53.663Z,0.88
2022-11-20T16:37:20.335Z,0.83
2022-11-20T16:39:47.030Z,0.80
2022-11-20T16:42:13.730Z,0.76
2022-11-20T16:44:41.833Z,0.73
2022-11-20T16:47:08.694Z,0.71
2022-11-20T16:49:35.327Z,0.69
2022-11-20T16:52:02.114Z,0.65
2022-11-20T16:54:28.864Z,0.66
2022-11-20T16:56:55.617Z,0.66
2022-11-20T16:59:22.362Z,0.66
2022-11-20T17:01:50.644Z,0.66
2022-11-20T17:04:17.478Z,0.68
2022-11-20T17:06:44.594Z,0.70
2022-11-20T17:09:13.800Z,0.72
2022-11-20T17:11:40.469Z,0.74
2022-11-20T17:14:07.251Z,0.76
2022-11-20T17:16:35.328Z,0.78
2022-11-20T17:19:04.617Z,0.81
2022-11-20T17:21:31.882Z,0.83
2022-11-20T17:24:01.505Z,0.85
2022-11-20T17:26:28.244Z,0.88
2022-11-20T17:28:56.686Z,0.88
2022-11-20T17:31:23.610Z,0.91
2022-11-20T17:33:50.433Z,0.94
2022-11-20T17:36:20.170Z,0.95
2022-11-20T17:38:47.459Z,0.97
2022-11-20T17:41:15.956Z,0.97
2022-11-20T17:43:43.509Z,0.96
2022-11-20T17:46:12.405Z,0.97
2022-11-20T17:48:39.777Z,0.98
2022-11-20T17:51:06.864Z,0.97
2022-11-20T17:53:36.698Z,0.96
2022-11-20T17:56:04.091Z,0.94
2022-11-20T17:58:30.755Z,0.94
2022-11-20T18:01:04.951Z,0.92
2022-11-20T18:03:31.710Z,0.89
2022-11-20T18:05:58.324Z,0.88
2022-11-20T18:08:27.307Z,0.85
2022-11-20T18:10:55.382Z,0.82
2022-11-20T18:13:22.125Z,0.76
2022-11-20T18:15:49.049Z,0.72
2022-11-20T18:18:15.767Z,0.67
2022-11-20T18:20:42.473Z,0.63
2022-11-20T18:23:09.151Z,0.58
2022-11-20T18:25:35.850Z,0.54
2022-11-20T18:28:03.981Z,0.50
2022-11-20T18:30:30.832Z,0.45
2022-11-20T18:32:57.609Z,0.41
2022-11-20T18:35:24.444Z,0.36
2022-11-20T18:37:51.148Z,0.31
2022-11-20T18:40:17.858Z,0.27
2022-11-20T18:42:44.562Z,0.22
2022-11-20T18:45:12.728Z,0.20
2022-11-20T18:47:39.488Z,0.16
2022-11-20T18:50:08.400Z,0.12
2022-11-20T18:52:39.633Z,0.12
2022-11-20T18:55:07.997Z,0.09
2022-11-20T18:57:34.770Z,0.08
2022-11-20T19:00:07.997Z,0.07
2022-11-20T19:02:42.329Z,0.04
2022-11-20T19:05:10.470Z,0.04
2022-11-20T19:07:37.222Z,-0.01
2022-11-20T19:10:04.711Z,-0.03
2022-11-20T19:12:31.918Z,-0.06
2022-11-20T19:14:58.553Z,-0.08
2022-11-20T19:17:25.256Z,-0.11
2022-11-20T19:19:53.385Z,-0.12
2022-11-20T19:22:20.154Z,-0.13
2022-11-20T19:24:46.981Z,-0.14
2022-11-20T19:27:13.715Z,-0.17
2022-11-20T19:29:40.383Z,-0.20
2022-11-20T19:32:07.169Z,-0.22
2022-11-20T19:34:33.824Z,-0.24
2022-11-20T19:37:02.026Z,-0.26
2022-11-20T19:39:28.823Z,-0.27
2022-11-20T19:41:55.589Z,-0.27
2022-11-20T19:44:22.334Z,-0.28
2022-11-20T19:46:49.201Z,-0.29
2022-11-20T19:49:15.931Z,-0.29
2022-11-20T19:51:46.001Z,-0.30
2022-11-20T19:54:14.734Z,-0.30
2022-11-20T19:56:41.454Z,-0.31
2022-11-20T19:59:08.155Z,-0.32
2022-11-20T20:01:35.017Z,-0.34
2022-11-20T20:04:02.011Z,-0.37
2022-11-20T20:06:29.027Z,-0.39
2022-11-20T20:08:57.153Z,-0.41
2022-11-20T20:11:27.089Z,-0.43
2022-11-20T20:13:54.106Z,-0.48
2022-11-20T20:16:22.709Z,-0.51
2022-11-20T20:18:49.668Z,-0.54
2022-11-20T20:21:17.353Z,-0.58
2022-11-20T20:23:44.493Z,-0.64
2022-11-20T20:26:11.871Z,-0.68
2022-11-20T20:28:39.802Z,-0.72
2022-11-20T20:31:08.164Z,-0.77
2022-11-20T20:33:35.737Z,-0.80
2022-11-20T20:36:02.338Z,-0.85
2022-11-20T20:38:28.890Z,-0.85
2022-11-20T20:40:56.581Z,-0.88
2022-11-20T20:43:23.274Z,-0.92
2022-11-20T20:45:51.775Z,-0.95
2022-11-20T20:48:20.911Z,-0.98
2022-11-20T20:50:53.874Z,-1.02
2022-11-20T20:53:20.522Z,-1.06
2022-11-20T20:55:53.923Z,-1.09
2022-11-20T20:58:20.597Z,-1.12
2022-11-20T21:00:47.198Z,-1.15
2022-11-20T21:03:15.279Z,-1.17
2022-11-20T21:05:41.937Z,-1.21
2022-11-20T21:08:08.704Z,-1.23
2022-11-20T21:10:35.299Z,-1.27
2022-11-20T21:13:01.863Z,-1.30
2022-11-20T21:15:28.643Z,-1.33
2022-11-20T21:17:55.247Z,-1.37
2022-11-20T21:20:23.339Z,-1.41
2022-11-20T21:22:49.893Z,-1.45
2022-11-20T21:25:16.653Z,-1.48
2022-11-20T21:27:43.259Z,-1.50
2022-11-20T21:30:10.863Z,-1.54
2022-11-20T21:32:37.427Z,-1.57
2022-11-20T21:35:04.430Z,-1.60
2022-11-20T21:37:34.973Z,-1.62
2022-11-20T21:40:04.377Z,-1.66
2022-11-20T21:42:30.987Z,-1.69
2022-11-20T21:44:57.784Z,-1.71
2022-11-20T21:47:24.399Z,-1.73
2022-11-20T21:49:51.006Z,-1.75
2022-11-20T21:52:17.598Z,-1.78
2022-11-20T21:54:45.558Z,-1.83
2022-11-20T21:57:12.113Z,-1.86
2022-11-20T21:59:38.686Z,-1.89
2022-11-20T22:02:05.365Z,-1.93
2022-11-20T22:04:32.055Z,-1.96
2022-11-20T22:06:58.666Z,-1.98
2022-11-20T22:09:25.333Z,-2.02
2022-11-20T22:11:53.257Z,-2.05
2022-11-20T22:14:19.826Z,-2.06
2022-11-20T22:16:46.765Z,-2.08
2022-11-20T22:19:16.106Z,-2.12
2022-11-20T22:21:42.690Z,-2.14
2022-11-20T22:24:12.465Z,-2.18
2022-11-20T22:26:40.631Z,-2.21
2022-11-20T22:29:14.018Z,-2.25
2022-11-20T22:31:40.945Z,-2.27
2022-11-20T22:34:10.731Z,-2.29
2022-11-20T22:36:37.952Z,-2.29
2022-11-20T22:39:05.213Z,-2.33
2022-11-20T22:41:32.209Z,-2.36
2022-11-20T22:44:00.226Z,-2.39
2022-11-20T22:46:30.593Z,-2.43
2022-11-20T22:48:59.114Z,-2.45
2022-11-20T22:51:27.848Z,-2.47
2022-11-20T22:53:54.694Z,-2.49
2022-11-20T22:56:21.661Z,-2.51
2022-11-20T22:58:50.707Z,-2.53
2022-11-20T23:01:19.180Z,-2.54
2022-11-20T23:03:49.635Z,-2.54
2022-11-20T23:06:17.410Z,-2.54
2022-11-20T23:08:44.441Z,-2.53
2022-11-20T23:11:13.346Z,-2.52
2022-11-20T23:13:40.735Z,-2.51
2022-11-20T23:16:09.395Z,-2.50
2022-11-20T23:18:36.534Z,-2.49
2022-11-20T23:21:08.613Z,-2.48
2022-11-20T23:23:35.607Z,-2.45
2022-11-20T23:26:02.515Z,-2.43
2022-11-20T23:28:29.578Z,-2.38
2022-11-20T23:30:56.418Z,-2.36
2022-11-20T23:33:23.320Z,-2.32
2022-11-20T23:35:50.185Z,-2.30
2022-11-20T23:38:18.383Z,-2.26
2022-11-20T23:40:47.148Z,-2.23
2022-11-20T23:43:13.980Z,-2.20
2022-11-20T23:45:40.862Z,-2.19
2022-11-20T23:48:07.800Z,-2.17
2022-11-20T23:50:35.034Z,-2.16
2022-11-20T23:53:01.903Z,-2.13
2022-11-20T23:55:30.402Z,-2.09
2022-11-20T23:57:57.234Z,-2.03
